Time;durP1;ratioP1;P1;durP2;ratioP2;P2;SDS_P1;SDS_P2;PMS_P1;PMS_P2;Temp;Humidity;BMP_temperature;BMP_pressure;BME280_temperature;BME280_humidity;BME280_pressure;Samples;Min_cycle;Max_cycle;Signal;HPM_P1;HPM_P2
2023/01/14 00:01:27;;;;;;;1.60;0.50;;;13.40;99.90;;;13.20;53.06;101209.41;4915868;28;98379;-59
2023/01/14 00:03:54;;;;;;;3.13;0.70;;;13.50;99.90;;;13.22;53.38;101207.53;4918683;28;98384;-59
2023/01/14 00:06:24;;;;;;;5.80;0.93;;;13.50;99.90;;;13.17;52.01;101201.53;4910078;28;97597;-47
2023/01/14 00:09:12;;;;;;;4.63;0.83;;;13.40;99.90;;;13.38;53.20;101203.38;4932122;28;103394;-55
2023/01/14 00:11:50;;;;;;;5.83;0.93;;;13.60;99.90;;;13.39;50.71;101191.88;4911813;28;99356;-54
2023/01/14 00:14:21;;;;;;;4.00;0.60;;;13.70;99.90;;;13.26;52.19;101187.97;4914880;28;96886;-53
2023/01/14 00:16:48;;;;;;;2.63;0.50;;;13.40;99.90;;;13.40;51.66;101182.97;4913657;28;96835;-60
2023/01/14 00:19:14;;;;;;;3.83;1.00;;;13.50;99.90;;;13.50;51.35;101169.38;4920876;28;98594;-53
2023/01/14 00:21:41;;;;;;;6.87;0.57;;;13.70;99.90;;;13.54;52.97;101176.28;4916680;28;100569;-60
2023/01/14 00:24:08;;;;;;;2.90;1.23;;;13.70;99.90;;;13.43;50.34;101191.75;4915733;28;98517;-55
2023/01/14 00:26:34;;;;;;;2.57;0.73;;;13.60;99.90;;;13.33;50.55;101183.31;4902156;28;99640;-55
2023/01/14 00:28:59;;;;;;;2.37;0.83;;;13.40;99.90;;;13.19;53.59;101191.78;4915195;28;97461;-58
2023/01/14 00:31:27;;;;;;;4.07;0.80;;;13.20;99.90;;;13.33;50.90;101194.75;4914201;28;98819;-56
2023/01/14 00:33:55;;;;;;;1.60;0.23;;;13.40;99.90;;;13.39;54.04;101191.88;4916899;28;99101;-53
2023/01/14 00:36:23;;;;;;;3.83;0.87;;;13.40;99.90;;;13.19;50.83;101193.56;4911586;28;98578;-55
2023/01/14 00:38:51;;;;;;;2.20;0.63;;;13.30;99.90;;;13.16;52.19;101185.66;4912863;28;99184;-59
2023/01/14 00:41:20;;;;;;;3.03;0.70;;;13.10;99.90;;;13.26;52.32;101201.19;4916934;28;97910;-61
2023/01/14 00:43:52;;;;;;;1.10;0.77;;;13.20;99.90;;;13.29;54.75;101198.44;4910518;28;97516;-61
2023/01/14 00:46:31;;;;;;;4.07;0.60;;;13.20;99.90;;;13.19;51.92;101197.06;4914571;28;98332;-61
2023/01/14 00:48:59;;;;;;;7.03;0.77;;;13.20;99.90;;;13.03;52.62;101201.19;4926675;28;101938;-55
2023/01/14 00:51:26;;;;;;;5.07;0.83;;;13.00;99.90;;;13.19;51.45;101202.38;4933407;28;97316;-53
2023/01/14 00:53:52;;;;;;;1.93;0.57;;;13.20;99.90;;;13.07;53.77;101213.38;4912313;28;97026;-56
2023/01/14 00:56:21;;;;;;;3.57;1.13;;;13.00;99.90;;;13.23;52.60;101214.56;4909639;28;97820;-62
2023/01/14 00:58:47;;;;;;;0.80;0.40;;;13.20;99.90;;;13.21;55.20;101216.41;4922920;28;99819;-58
2023/01/14 01:01:14;;;;;;;4.50;1.20;;;13.10;99.90;;;13.05;51.62;101220.53;4917533;28;98032;-60
2023/01/14 01:03:43;;;;;;;2.70;0.63;;;13.00;99.90;;;13.07;51.72;101223.97;4910705;28;97992;-60
2023/01/14 01:06:11;;;;;;;2.27;0.83;;;13.00;99.90;;;12.87;51.50;101226.47;4915062;28;99577;-53
2023/01/14 01:08:37;;;;;;;5.77;0.93;;;12.90;99.90;;;12.97;54.72;101222.59;4911956;28;97315;-57
2023/01/14 01:11:04;;;;;;;8.97;1.33;;;12.80;99.90;;;12.92;51.58;101219.25;4916410;28;97564;-59
2023/01/14 01:13:30;;;;;;;7.07;0.73;;;12.90;99.90;;;12.82;52.13;101213.41;4913138;28;98871;-56
2023/01/14 01:16:04;;;;;;;9.43;1.20;;;12.80;99.90;;;12.73;54.38;101221.66;4918128;28;103440;-54
2023/01/14 01:18:30;;;;;;;1.27;0.57;;;12.60;99.90;;;12.73;54.16;101225.22;4911107;28;97692;-59
2023/01/14 01:21:14;;;;;;;4.27;0.50;;;12.50;99.90;;;12.71;52.33;101221.72;4913709;28;100045;-53
2023/01/14 01:23:41;;;;;;;4.00;1.03;;;12.60;99.90;;;12.64;52.19;101225.53;4902289;28;97920;-53
2023/01/14 01:26:15;;;;;;;1.90;0.67;;;12.60;99.90;;;12.64;52.16;101230.81;4914753;28;97231;-57
2023/01/14 01:28:42;;;;;;;5.83;0.80;;;12.60;99.90;;;12.62;53.01;101216.78;4945577;28;102079;-56
2023/01/14 01:31:11;;;;;;;3.77;0.73;;;12.50;99.90;;;12.54;52.19;101217.94;4920789;28;97425;-52
2023/01/14 01:33:38;;;;;;;3.83;0.93;;;12.40;99.90;;;12.54;54.05;101223.25;4913839;28;96989;-50
2023/01/14 01:36:12;;;;;;;3.03;0.90;;;12.40;99.90;;;12.51;52.53;101226.88;4913886;28;97485;-56
2023/01/14 01:38:38;;;;;;;4.20;0.80;;;12.40;99.90;;;12.42;53.64;101230.69;4905437;28;99680;-52
2023/01/14 01:41:04;;;;;;;3.37;0.80;;;12.30;99.90;;;12.42;53.25;101229.81;4914959;28;98802;-58
2023/01/14 01:43:32;;;;;;;2.73;0.53;;;12.20;99.90;;;12.34;53.30;101230.09;4904073;28;97768;-61
2023/01/14 01:46:00;;;;;;;3.10;0.73;;;12.20;99.90;;;12.32;53.98;101236.34;4916023;28;97380;-57
2023/01/14 01:48:42;;;;;;;4.33;0.90;;;12.20;99.90;;;12.27;53.47;101247.06;4919030;28;98614;-61
2023/01/14 01:51:20;;;;;;;7.47;1.00;;;12.20;99.90;;;12.24;53.19;101251.59;4936766;28;96902;-57
2023/01/14 01:53:50;;;;;;;4.33;0.50;;;12.10;99.90;;;12.28;53.46;101245.28;4940107;28;97577;-56
2023/01/14 01:56:22;;;;;;;1.23;0.60;;;12.20;99.90;;;12.24;54.79;101235.75;4942077;28;99260;-61
2023/01/14 01:58:50;;;;;;;5.17;0.80;;;12.10;99.90;;;12.27;53.94;101240.91;4934081;28;104335;-53
2023/01/14 02:01:16;;;;;;;2.87;0.60;;;12.20;99.90;;;12.30;55.63;101231.13;4937313;28;100062;-56
2023/01/14 02:03:46;;;;;;;4.57;1.23;;;12.20;99.90;;;12.32;54.88;101233.72;4917843;28;98135;-51
2023/01/14 02:06:14;;;;;;;9.53;1.00;;;12.10;99.90;;;12.23;53.85;101234.88;4913081;28;97377;-61
2023/01/14 02:08:46;;;;;;;3.43;1.00;;;12.10;99.90;;;12.27;55.94;101235.63;4923819;27;97446;-54
2023/01/14 02:11:50;;;;;;;1.10;0.50;;;12.10;99.90;;;12.27;53.82;101225.91;4921424;28;103447;-52
2023/01/14 02:14:29;;;;;;;2.43;0.53;;;12.10;99.90;;;12.27;53.88;101235.63;4926550;27;100021;-51
2023/01/14 02:17:13;;;;;;;9.50;1.77;;;12.10;99.90;;;12.29;54.41;101236.44;4930839;28;101780;-53
2023/01/14 02:20:35;;;;;;;5.50;0.83;;;12.10;99.90;;;12.34;55.40;101222.16;4930749;28;97073;-56
2023/01/14 02:23:37;;;;;;;2.73;0.50;;;12.20;99.90;;;12.26;53.50;101216.25;4938980;28;97437;-52
2023/01/14 02:26:30;;;;;;;2.67;1.00;;;12.10;99.90;;;12.30;54.17;101209.97;4968124;28;97069;-55
2023/01/14 02:29:26;;;;;;;1.60;0.93;;;12.20;99.90;;;12.33;53.63;101219.56;4933167;28;102251;-55
2023/01/14 02:31:59;;;;;;;3.23;1.03;;;12.20;99.90;;;12.24;53.67;101225.16;4949277;28;101627;-58
2023/01/14 02:35:01;;;;;;;3.33;0.60;;;12.20;99.90;;;12.25;55.14;101217.16;4938736;28;97155;-61
2023/01/14 02:37:38;;;;;;;8.30;0.93;;;12.10;99.90;;;12.24;53.19;101230.44;4938906;28;97597;-54
2023/01/14 02:40:28;;;;;;;0.77;0.50;;;12.20;99.90;;;12.27;54.20;101225.91;4938263;28;98584;-50
2023/01/14 02:46:31;;;;;;;6.53;0.60;;;12.20;99.90;;;12.19;54.01;101228.81;4956002;28;97437;-55
2023/01/14 02:48:58;;;;;;;6.03;1.13;;;12.10;99.90;;;12.10;53.68;101218.53;4938256;28;98926;-56
2023/01/14 02:51:25;;;;;;;2.87;0.93;;;12.10;99.90;;;12.03;53.31;101210.88;4940158;28;97581;-54
2023/01/14 02:53:51;;;;;;;3.13;0.73;;;12.00;99.90;;;12.07;54.38;101207.22;4943687;28;97051;-50
2023/01/14 02:56:17;;;;;;;3.17;1.07;;;12.00;99.90;;;12.01;53.60;101202.13;4954740;28;100555;-58
2023/01/14 02:59:13;;;;;;;2.80;0.33;;;11.90;99.90;;;12.03;54.72;101200.31;4958217;28;97547;-57
2023/01/14 03:02:21;;;;;;;2.47;0.90;;;11.90;99.90;;;12.00;53.93;101198.59;4941828;28;98071;-51
2023/01/14 03:05:27;;;;;;;1.77;0.73;;;11.90;99.90;;;11.93;54.28;101194.44;4932880;28;101360;-50
2023/01/14 03:08:07;;;;;;;4.17;0.60;;;11.80;99.90;;;11.95;53.74;101182.03;4947290;28;97582;-57
2023/01/14 03:10:44;;;;;;;4.20;0.60;;;11.80;99.90;;;11.99;54.71;101165.16;4932166;28;96888;-50
2023/01/14 03:13:43;;;;;;;1.30;0.40;;;11.90;99.90;;;12.00;53.64;101164.22;4940901;28;97194;-56
2023/01/14 03:16:17;;;;;;;3.90;0.70;;;11.90;99.90;;;12.01;57.67;101159.84;4948599;28;101318;-50
2023/01/14 03:18:46;;;;;;;1.30;0.53;;;11.80;99.90;;;11.98;54.79;101150.19;4938825;28;97289;-51
2023/01/14 03:21:22;;;;;;;0.90;0.37;;;11.80;99.90;;;11.96;54.13;101146.75;4954670;28;97502;-52
2023/01/14 03:24:02;;;;;;;2.53;0.50;;;11.80;99.90;;;11.88;54.38;101147.03;4946266;28;101937;-49
2023/01/14 03:26:32;;;;;;;6.10;0.70;;;11.70;99.90;;;11.85;54.15;101143.59;4937864;28;97210;-52
2023/01/14 03:29:03;;;;;;;3.10;0.40;;;11.70;99.90;;;11.82;53.73;101143.69;4966268;28;98455;-54
2023/01/14 03:31:32;;;;;;;5.60;1.20;;;11.70;99.90;;;11.86;54.91;101140.94;4948736;28;97226;-54
2023/01/14 03:34:11;;;;;;;0.47;0.23;;;11.60;99.90;;;11.82;54.07;101138.41;4949706;28;97188;-51
2023/01/14 03:36:39;;;;;;;1.43;0.60;;;11.60;99.90;;;11.80;55.54;101140.25;4945675;28;96689;-52
2023/01/14 03:39:13;;;;;;;1.33;0.53;;;11.60;99.90;;;11.78;53.68;101136.75;4966998;28;97364;-52
2023/01/14 03:44:37;;;;;;;3.03;0.53;;;11.60;99.90;;;11.73;54.19;101120.19;4952064;28;96624;-61
2023/01/14 03:47:04;;;;;;;5.33;0.90;;;11.60;99.90;;;11.71;55.38;101132.56;4964686;28;96975;-53
2023/01/14 03:49:29;;;;;;;3.50;0.57;;;11.50;99.90;;;11.69;54.04;101126.47;4942681;28;97154;-55
2023/01/14 03:52:20;;;;;;;5.70;0.80;;;11.50;99.90;;;11.66;53.59;101123.94;4950028;28;97499;-57
2023/01/14 03:54:59;;;;;;;2.73;0.70;;;11.50;99.90;;;11.66;53.45;101121.31;4944602;28;100409;-49
2023/01/14 03:57:33;;;;;;;2.10;1.03;;;11.50;99.90;;;11.71;54.21;101124.66;4940286;28;97582;-55
2023/01/14 04:00:14;;;;;;;2.83;0.73;;;11.50;99.90;;;11.68;53.79;101124.75;4947473;28;98059;-47
2023/01/14 04:02:43;;;;;;;1.03;0.70;;;11.60;99.90;;;11.63;53.45;101123.13;4942860;28;97475;-50
2023/01/14 04:05:09;;;;;;;4.73;0.90;;;11.50;99.90;;;11.55;54.25;101130.44;4940344;28;97421;-57
2023/01/14 04:07:35;;;;;;;2.83;0.60;;;11.50;99.90;;;11.61;54.85;101124.97;4936419;28;104864;-53
2023/01/14 04:10:01;;;;;;;1.07;0.30;;;11.50;99.90;;;11.62;56.27;101121.41;4943431;28;97198;-49
2023/01/14 04:12:27;;;;;;;11.57;1.07;;;11.50;99.90;;;11.58;53.51;101109.22;4940716;28;97127;-53
2023/01/14 04:17:37;;;;;;;6.13;0.40;;;11.50;99.90;;;11.58;53.65;101106.56;4953863;28;97187;-53
2023/01/14 04:20:05;;;;;;;14.80;1.13;;;11.50;99.90;;;11.54;53.67;101101.41;4970785;28;97107;-57
2023/01/14 04:22:31;;;;;;;2.20;0.50;;;11.50;99.90;;;11.60;53.50;101102.09;4956136;28;97041;-50
2023/01/14 04:24:57;;;;;;;12.07;0.70;;;11.50;99.90;;;11.59;53.41;101092.44;4963225;28;97563;-53
2023/01/14 04:27:23;;;;;;;1.30;0.63;;;11.50;99.90;;;11.60;53.26;101080.97;4953719;27;114110;-56
2023/01/14 04:29:48;;;;;;;3.13;0.43;;;11.50;99.90;;;11.61;54.39;101087.97;4952370;28;97269;-51
2023/01/14 04:32:14;;;;;;;2.53;0.37;;;11.50;99.90;;;11.61;53.98;101082.69;4939446;28;97134;-53
2023/01/14 04:34:40;;;;;;;5.20;0.60;;;11.50;99.90;;;11.57;52.94;101075.78;4934590;28;105126;-52
2023/01/14 04:37:07;;;;;;;11.97;1.67;;;11.50;99.90;;;11.53;52.86;101078.56;4936822;28;99865;-52
2023/01/14 04:39:34;;;;;;;4.97;1.40;;;11.50;99.90;;;11.53;53.47;101078.56;4942583;28;97117;-52
2023/01/14 04:44:46;;;;;;;8.77;0.77;;;11.50;99.90;;;11.72;54.78;101076.19;4953164;28;102028;-52
2023/01/14 04:47:12;;;;;;;3.33;0.70;;;11.60;99.90;;;11.79;55.19;101064.50;4944969;28;97477;-54
2023/01/14 04:49:38;;;;;;;0.47;0.30;;;11.60;99.90;;;11.84;54.29;101058.13;4943366;28;97270;-57
2023/01/14 04:52:04;;;;;;;3.60;0.70;;;11.70;99.90;;;11.96;55.51;101066.56;4950260;28;97258;-48
2023/01/14 04:54:30;;;;;;;3.20;1.07;;;11.70;99.90;;;12.01;55.25;101057.56;4949051;27;97229;-49
2023/01/14 04:56:56;;;;;;;7.10;0.70;;;11.70;99.90;;;12.09;56.14;101046.72;4954033;28;104807;-48
2023/01/14 04:59:22;;;;;;;8.67;0.60;;;11.80;99.90;;;12.17;54.16;101040.25;4958422;27;98017;-51
2023/01/14 05:01:48;;;;;;;0.90;0.40;;;11.90;99.90;;;12.21;55.47;101035.69;4966790;28;97604;-57
2023/01/14 05:04:13;;;;;;;1.63;0.40;;;11.90;99.90;;;12.20;56.17;101033.97;4962979;28;98814;-51
2023/01/14 05:06:39;;;;;;;1.60;0.60;;;11.80;99.90;;;12.16;53.11;101033.22;4961567;28;97304;-55
2023/01/14 05:09:05;;;;;;;6.73;0.53;;;11.80;99.90;;;12.23;55.16;101033.00;4965910;27;97318;-53
2023/01/14 05:11:31;;;;;;;1.37;0.20;;;11.80;99.90;;;12.27;56.63;101021.38;4957992;28;97315;-49
2023/01/14 05:13:57;;;;;;;1.40;0.83;;;11.90;99.90;;;12.25;54.88;101013.50;4959015;28;103292;-49
2023/01/14 05:16:23;;;;;;;1.70;0.37;;;11.90;99.90;;;12.23;53.23;101017.13;4941226;28;98201;-50
2023/01/14 05:18:50;;;;;;;3.50;1.13;;;11.80;99.90;;;12.21;55.63;101018.06;4951009;27;97655;-53
2023/01/14 05:21:17;;;;;;;0.80;0.73;;;11.80;99.90;;;12.21;54.04;101009.25;4941329;28;97834;-56
2023/01/14 05:23:44;;;;;;;1.50;0.30;;;11.80;99.90;;;12.26;56.58;101011.72;4938289;28;97243;-50
2023/01/14 05:26:10;;;;;;;1.20;0.40;;;11.80;99.90;;;12.20;53.06;101002.25;4940712;28;97006;-55
2023/01/14 05:28:36;;;;;;;0.67;0.23;;;11.80;99.90;;;12.23;56.28;100996.84;4937342;28;97538;-59
2023/01/14 05:31:03;;;;;;;0.40;0.20;;;11.80;99.90;;;12.16;52.57;100992.72;4934659;28;97328;-51
2023/01/14 05:33:29;;;;;;;4.80;0.80;;;11.80;99.90;;;12.08;53.64;100987.69;4941234;28;98279;-52
2023/01/14 05:35:57;;;;;;;2.00;0.40;;;11.70;99.90;;;12.10;54.12;100984.97;4945222;28;121871;-53
2023/01/14 05:38:24;;;;;;;1.13;0.60;;;11.70;99.90;;;12.06;56.49;100984.22;4959167;28;97305;-55
2023/01/14 05:40:50;;;;;;;2.80;0.30;;;11.70;99.90;;;12.08;53.91;100990.31;4963508;28;97219;-47
2023/01/14 05:46:15;;;;;;;2.63;0.50;;;11.80;99.90;;;12.19;52.61;100982.88;4953213;28;101095;-56
2023/01/14 05:48:41;;;;;;;3.07;0.60;;;11.90;99.90;;;12.25;54.45;100972.97;4938051;28;98073;-53
2023/01/14 05:51:07;;;;;;;4.40;0.77;;;11.80;99.90;;;12.23;55.78;100973.03;4948031;28;96789;-57
2023/01/14 05:53:33;;;;;;;7.73;0.63;;;11.80;99.90;;;12.20;53.64;100976.66;4937333;28;125515;-53
2023/01/14 05:56:00;;;;;;;4.17;0.30;;;11.80;99.90;;;12.25;56.04;100962.38;4941096;28;97055;-54
2023/01/14 05:58:27;;;;;;;0.87;0.50;;;11.80;99.90;;;12.26;55.57;100945.59;4935327;28;97614;-47
2023/01/14 06:06:29;;;;;;;1.70;0.23;;;11.80;99.90;;;12.23;54.88;100941.28;4964196;28;97185;-47
2023/01/14 06:09:05;;;;;;;3.43;1.50;;;11.80;99.90;;;12.23;56.66;100932.50;4958451;27;97022;-52
2023/01/14 06:11:34;;;;;;;1.20;0.43;;;11.80;99.90;;;12.30;54.25;100934.00;4943163;28;96717;-51
2023/01/14 06:14:01;;;;;;;2.57;0.57;;;11.90;99.90;;;12.38;55.55;100921.31;4936844;28;98384;-50
2023/01/14 06:16:32;;;;;;;3.40;0.43;;;11.90;99.90;;;12.40;54.20;100920.34;4938093;28;96926;-56
2023/01/14 06:18:58;;;;;;;1.43;0.47;;;12.00;99.90;;;12.40;53.25;100920.34;4942324;28;96843;-53
2023/01/14 06:21:31;;;;;;;0.93;0.30;;;12.00;99.90;;;12.39;54.13;100909.81;4936235;28;97018;-55
2023/01/14 06:29:11;;;;;;;0.70;0.70;;;11.90;99.90;;;12.42;56.85;100899.09;5033503;22;98724;-46
2023/01/14 06:31:38;;;;;;;4.70;0.93;;;12.00;99.90;;;12.37;52.30;100893.16;4951550;28;98286;-49
2023/01/14 06:34:04;;;;;;;4.37;0.60;;;12.10;99.90;;;12.27;52.81;100889.13;4972506;28;97220;-53
2023/01/14 06:36:33;;;;;;;1.40;0.37;;;12.00;99.90;;;12.30;55.40;100886.41;4960825;28;97909;-52
2023/01/14 06:38:59;;;;;;;4.60;0.47;;;11.90;99.90;;;12.20;53.33;100878.81;4955442;28;97601;-51
2023/01/14 06:41:25;;;;;;;2.63;0.50;;;11.90;99.90;;;12.23;54.74;100874.31;4947692;28;96882;-49
2023/01/14 06:43:52;;;;;;;0.80;0.40;;;11.90;99.90;;;12.18;56.73;100867.44;4954492;28;99159;-53
2023/01/14 06:46:18;;;;;;;3.87;0.57;;;11.90;99.90;;;12.24;55.47;100860.16;4952039;28;97329;-49
2023/01/14 06:48:45;;;;;;;1.07;0.27;;;11.90;99.90;;;12.11;53.79;100859.78;4953280;28;96887;-47
2023/01/14 06:51:17;;;;;;;2.37;0.57;;;11.80;99.90;;;12.15;56.72;100851.69;4962289;28;98173;-48
2023/01/14 06:53:42;;;;;;;0.30;0.20;;;11.80;99.90;;;12.19;54.12;100858.56;4949109;28;101736;-47
2023/01/14 06:56:15;;;;;;;1.47;0.40;;;11.90;99.90;;;12.26;55.32;100842.44;4955726;28;99658;-46
2023/01/14 06:58:41;;;;;;;1.20;0.30;;;12.00;99.90;;;12.39;56.49;100827.81;4956294;28;97360;-46
2023/01/14 07:01:09;;;;;;;0.83;0.43;;;12.00;99.90;;;12.42;54.85;100828.53;4955703;28;97148;-47
2023/01/14 07:03:35;;;;;;;0.30;0.13;;;12.20;99.90;;;12.56;56.32;100819.19;4943247;28;97696;-50
2023/01/14 07:06:01;;;;;;;1.03;0.30;;;12.30;99.90;;;12.54;54.94;100811.31;4965543;28;99303;-47
2023/01/14 07:08:28;;;;;;;2.53;0.30;;;12.40;99.90;;;12.73;55.86;100811.41;4953994;28;97868;-46
2023/01/14 07:10:54;;;;;;;1.90;0.37;;;12.50;99.90;;;12.74;55.38;100794.63;4954171;28;97861;-48
2023/01/14 07:13:21;;;;;;;4.67;0.73;;;12.50;99.90;;;12.74;53.76;100787.53;4938655;28;97685;-49
2023/01/14 07:15:48;;;;;;;1.63;0.40;;;12.50;99.90;;;12.82;54.81;100790.69;4951161;28;104024;-47
2023/01/14 07:18:15;;;;;;;1.37;0.57;;;12.50;99.90;;;12.78;55.38;100783.81;4955593;28;97351;-50
2023/01/14 07:20:41;;;;;;;2.37;0.50;;;12.50;99.90;;;12.69;53.96;100786.84;4955984;28;97075;-49
2023/01/14 07:23:08;;;;;;;1.00;0.30;;;12.40;99.90;;;12.64;53.96;100783.56;4953995;28;97686;-51
2023/01/14 07:25:35;;;;;;;2.70;0.60;;;12.40;99.90;;;12.64;54.47;100775.59;4953626;28;96779;-49
2023/01/14 07:28:02;;;;;;;0.63;0.40;;;12.30;99.90;;;12.67;54.76;100775.47;4957012;28;96795;-47
2023/01/14 07:30:27;;;;;;;5.63;0.93;;;12.40;99.90;;;12.82;55.24;100773.97;4955812;28;97140;-49
2023/01/14 07:32:57;;;;;;;4.70;0.40;;;12.50;99.90;;;12.75;55.39;100767.22;4956402;28;110781;-50
2023/01/14 07:35:22;;;;;;;1.97;0.50;;;12.50;99.90;;;12.89;54.09;100771.94;4948744;28;96939;-50
2023/01/14 07:37:52;;;;;;;0.63;0.30;;;12.60;99.90;;;12.92;55.83;100763.84;4958980;28;98143;-51
2023/01/14 07:40:18;;;;;;;1.67;0.40;;;12.60;99.90;;;12.92;54.46;100758.56;4945812;28;97053;-49
2023/01/14 07:42:44;;;;;;;0.40;0.30;;;12.70;99.90;;;13.00;54.80;100757.25;4954712;28;97768;-48
2023/01/14 07:45:10;;;;;;;1.07;0.33;;;12.70;99.90;;;12.90;55.15;100749.81;4953298;28;106083;-50
2023/01/14 07:47:36;;;;;;;2.43;0.53;;;12.60;99.90;;;13.01;55.70;100742.25;4953757;28;97889;-51
2023/01/14 07:50:02;;;;;;;0.70;0.40;;;12.70;99.90;;;13.06;55.84;100733.19;4952041;28;96979;-50
2023/01/14 07:52:27;;;;;;;2.97;0.40;;;12.70;99.90;;;12.99;55.25;100730.84;4945397;28;97161;-49
2023/01/14 07:54:53;;;;;;;3.03;0.33;;;12.70;99.90;;;12.94;55.89;100703.75;4969755;28;97946;-49
2023/01/14 07:57:19;;;;;;;3.27;0.77;;;12.60;99.90;;;13.03;54.65;100708.63;4950500;28;96998;-51
2023/01/14 07:59:45;;;;;;;0.63;0.40;;;12.80;99.90;;;13.00;55.87;100687.56;4948657;28;96906;-47
2023/01/14 08:02:12;;;;;;;0.80;0.23;;;12.70;99.90;;;12.97;55.02;100696.50;4954641;28;97411;-49
2023/01/14 08:04:39;;;;;;;1.83;0.67;;;12.70;99.90;;;12.96;55.96;100686.00;4950457;28;97194;-48
2023/01/14 08:07:06;;;;;;;2.43;0.63;;;12.60;99.90;;;12.92;56.21;100687.94;4960011;28;101715;-50
2023/01/14 08:09:33;;;;;;;3.10;0.50;;;12.60;99.90;;;12.82;55.68;100700.69;4953412;28;97098;-50
2023/01/14 08:11:59;;;;;;;3.60;1.07;;;12.50;99.90;;;12.79;56.85;100690.25;4953260;28;98633;-49
2023/01/14 08:14:24;;;;;;;0.50;0.50;;;12.40;99.90;;;12.80;56.91;100689.31;4955204;28;96795;-46
2023/01/14 08:16:50;;;;;;;0.30;0.20;;;12.40;99.90;;;12.78;56.57;100682.38;4957207;28;98407;-50
2023/01/14 08:19:17;;;;;;;1.50;0.70;;;12.40;99.90;;;12.89;56.35;100688.06;4957693;28;97628;-47
2023/01/14 08:21:44;;;;;;;0.47;0.43;;;12.60;99.90;;;12.82;56.08;100684.81;4950966;28;102856;-50
2023/01/14 08:24:09;;;;;;;0.57;0.23;;;12.50;99.90;;;13.01;55.86;100683.97;4959166;28;97879;-49
2023/01/14 08:26:35;;;;;;;2.23;0.40;;;12.70;99.90;;;13.00;56.17;100682.25;4949742;28;98034;-49
2023/01/14 08:29:01;;;;;;;2.97;0.27;;;12.70;99.90;;;12.95;56.56;100673.69;4957476;28;103839;-48
2023/01/14 08:31:27;;;;;;;1.23;0.33;;;12.70;99.90;;;13.09;56.30;100660.69;4955248;28;109448;-47
2023/01/14 08:33:53;;;;;;;3.20;0.40;;;12.70;99.90;;;13.16;55.11;100646.22;4953976;28;96734;-52
2023/01/14 08:36:19;;;;;;;0.47;0.20;;;13.00;99.90;;;13.37;55.07;100633.78;4950311;28;97240;-50
2023/01/14 08:38:51;;;;;;;0.53;0.47;;;13.10;99.90;;;13.39;55.14;100642.53;4953447;28;96839;-50
2023/01/14 08:41:17;;;;;;;2.43;0.23;;;13.20;99.90;;;13.44;53.19;100639.66;4953849;28;97074;-47
2023/01/14 08:43:48;;;;;;;2.20;0.50;;;13.30;99.90;;;13.52;55.01;100637.50;4953167;28;99931;-47
2023/01/14 08:46:15;;;;;;;0.10;0.10;;;13.30;99.90;;;13.67;54.16;100632.31;4956295;28;97317;-53
2023/01/14 08:48:40;;;;;;;0.80;0.50;;;13.60;99.90;;;13.62;54.59;100617.59;4951090;28;97543;-52
2023/01/14 08:51:10;;;;;;;0.40;0.20;;;13.50;99.90;;;13.73;54.20;100609.94;4949161;28;124136;-51
2023/01/14 08:53:37;;;;;;;1.53;0.30;;;13.50;99.90;;;13.80;53.42;100600.75;4948759;28;97511;-52
2023/01/14 08:56:05;;;;;;;0.60;0.40;;;13.60;99.90;;;13.77;54.33;100590.31;4954556;28;96765;-50
2023/01/14 08:58:34;;;;;;;1.50;0.60;;;13.50;99.90;;;13.76;52.50;100588.59;4949662;28;97178;-50
2023/01/14 09:01:06;;;;;;;2.03;0.40;;;13.60;99.90;;;13.78;52.67;100575.28;4953081;28;98112;-51
2023/01/14 09:03:35;;;;;;;1.33;0.70;;;13.60;99.90;;;13.85;53.81;100574.88;4961239;28;98502;-53
2023/01/14 09:06:07;;;;;;;1.17;0.60;;;13.70;99.90;;;13.82;53.15;100561.78;4954090;28;97717;-52
2023/01/14 09:17:10;;;;;;;1.50;0.50;;;13.50;99.90;;;13.75;54.03;100538.31;4952634;28;97350;-53
2023/01/14 09:19:57;;;;;;;0.40;0.20;;;13.40;99.90;;;13.64;54.20;100528.25;4953037;28;97504;-53
2023/01/14 09:22:29;;;;;;;2.23;0.33;;;13.30;99.90;;;13.76;54.37;100524.97;4945858;28;97108;-50
2023/01/14 09:24:55;;;;;;;3.40;0.60;;;13.50;99.90;;;13.79;54.21;100519.53;4954651;28;97389;-52
2023/01/14 09:27:22;;;;;;;2.40;0.60;;;13.50;99.90;;;13.79;54.62;100518.66;4952935;28;97294;-51
2023/01/14 09:29:48;;;;;;;0.27;0.20;;;13.50;99.90;;;13.84;53.92;100513.97;4946208;28;97859;-50
2023/01/14 09:32:17;;;;;;;1.40;0.23;;;13.60;99.90;;;13.92;53.36;100499.41;4947269;28;97327;-50
2023/01/14 09:34:48;;;;;;;0.30;0.10;;;13.80;99.90;;;14.14;52.15;100491.16;4958218;28;100146;-52
2023/01/14 09:37:16;;;;;;;1.53;0.50;;;14.10;99.90;;;14.21;52.66;100489.06;4948110;28;97170;-50
2023/01/14 09:39:42;;;;;;;0.10;0.10;;;14.20;99.90;;;14.27;53.37;100489.56;4943111;28;97992;-51
2023/01/14 09:42:15;;;;;;;0.73;0.40;;;14.20;99.90;;;14.24;52.24;100488.88;4956781;28;105943;-48
2023/01/14 09:44:42;;;;;;;3.47;0.57;;;14.20;99.90;;;14.18;52.72;100483.91;4952367;28;97058;-48
2023/01/14 09:47:13;;;;;;;0.10;0.10;;;14.00;99.90;;;14.19;53.30;100472.38;4944773;28;96694;-47
2023/01/14 09:49:41;;;;;;;0.50;0.23;;;13.90;99.90;;;14.26;53.28;100469.28;4951838;28;97002;-50
2023/01/14 09:52:38;;;;;;;0.20;0.20;;;14.00;99.90;;;14.38;52.55;100470.44;4955461;28;97561;-52
2023/01/14 09:55:19;;;;;;;0.47;0.40;;;14.30;99.90;;;14.29;53.01;100455.00;4946253;28;101290;-50
2023/01/14 09:57:54;;;;;;;0.70;0.50;;;14.20;99.90;;;14.19;52.47;100443.19;4931827;28;96983;-51
2023/01/14 10:00:41;;;;;;;1.73;0.30;;;14.10;99.90;;;14.21;52.79;100430.69;4905165;28;97487;-52
2023/01/14 10:03:46;;;;;;;1.50;0.43;;;14.10;99.90;;;14.06;52.94;100420.91;4928692;28;99379;-49
2023/01/14 10:06:17;;;;;;;0.37;0.30;;;13.90;99.90;;;14.03;53.60;100405.13;4898643;28;101556;-47
2023/01/14 10:08:56;;;;;;;0.57;0.20;;;13.80;99.90;;;14.10;53.66;100412.69;4926633;28;97716;-49
2023/01/14 10:11:24;;;;;;;1.13;0.20;;;13.90;99.90;;;14.14;53.67;100397.47;4945825;28;97104;-51
2023/01/14 10:14:04;;;;;;;0.83;0.30;;;14.00;99.90;;;14.19;52.63;100387.47;4934864;28;99622;-50
2023/01/14 10:16:41;;;;;;;6.33;0.40;;;14.10;99.90;;;14.14;52.84;100365.63;4932190;28;97966;-49
2023/01/14 10:19:33;;;;;;;0.87;0.20;;;14.10;99.90;;;14.16;52.54;100371.72;4948717;28;98277;-51
2023/01/14 10:22:38;;;;;;;1.43;0.40;;;14.10;99.90;;;14.09;52.82;100357.94;4930265;28;97009;-52
2023/01/14 10:25:14;;;;;;;1.43;0.30;;;14.00;99.90;;;14.19;53.12;100347.69;4919500;28;100457;-54
2023/01/14 10:27:44;;;;;;;0.53;0.30;;;14.10;99.90;;;14.14;53.98;100349.72;4931406;28;97410;-51
2023/01/14 10:30:38;;;;;;;0.57;0.40;;;13.90;99.90;;;14.17;53.70;100346.91;4935856;28;97219;-51
2023/01/14 10:33:06;;;;;;;1.53;0.47;;;14.00;99.90;;;14.20;53.98;100336.16;4919743;28;97554;-51
2023/01/14 10:35:39;;;;;;;0.20;0.10;;;14.10;99.90;;;14.07;54.14;100332.44;4913770;28;97623;-53
2023/01/14 10:38:05;;;;;;;0.33;0.20;;;13.90;99.90;;;14.07;54.44;100327.16;4914510;28;97251;-48
2023/01/14 10:40:32;;;;;;;0.63;0.10;;;13.80;99.90;;;14.02;54.41;100318.56;4924321;28;97437;-52
2023/01/14 10:43:00;;;;;;;0.53;0.40;;;13.80;99.90;;;14.02;54.45;100323.88;4940487;28;97971;-51
2023/01/14 10:45:27;;;;;;;1.30;0.40;;;13.80;99.90;;;14.10;54.15;100309.25;4935870;28;97163;-50
2023/01/14 10:48:04;;;;;;;0.23;0.20;;;13.90;99.90;;;14.11;53.62;100303.00;4937034;28;97848;-47
2023/01/14 10:50:31;;;;;;;0.30;0.30;;;14.00;99.90;;;14.14;54.29;100291.38;4932822;28;97457;-50
2023/01/14 10:53:14;;;;;;;2.93;0.20;;;14.00;99.90;;;14.06;55.43;100289.16;4939823;28;101379;-48
2023/01/14 10:55:56;;;;;;;0.90;0.43;;;13.90;99.90;;;14.09;54.67;100277.53;4935405;28;98562;-50
2023/01/14 10:58:37;;;;;;;0.63;0.20;;;13.90;99.90;;;14.09;54.90;100282.84;4948728;28;104355;-49
2023/01/14 11:01:10;;;;;;;1.00;0.40;;;14.00;99.90;;;13.97;55.35;100279.91;4936314;28;99051;-51